sensor_id;sensor_type;location;lat;lon;timestamp;temperature;humidity
67279;DHT22;54193;53.746;10.058;2023-10-13T00:01:14;11.77;94.09
67279;DHT22;54193;53.746;10.058;2023-10-13T00:03:59;11.75;94.11
67279;DHT22;54193;53.746;10.058;2023-10-13T00:06:47;11.77;94.03
67279;DHT22;54193;53.746;10.058;2023-10-13T00:09:33;11.79;94.02
67279;DHT22;54193;53.746;10.058;2023-10-13T00:12:18;11.84;94.01
67279;DHT22;54193;53.746;10.058;2023-10-13T00:15:08;11.85;93.93
67279;DHT22;54193;53.746;10.058;2023-10-13T00:17:59;11.81;93.98
67279;DHT22;54193;53.746;10.058;2023-10-13T00:20:44;11.82;94.06
67279;DHT22;54193;53.746;10.058;2023-10-13T00:23:36;11.85;94.00
67279;DHT22;54193;53.746;10.058;2023-10-13T00:26:23;11.85;94.02
67279;DHT22;54193;53.746;10.058;2023-10-13T00:29:15;11.86;94.03
67279;DHT22;54193;53.746;10.058;2023-10-13T00:32:01;11.92;94.06
67279;DHT22;54193;53.746;10.058;2023-10-13T00:34:49;11.95;93.99
67279;DHT22;54193;53.746;10.058;2023-10-13T00:37:41;11.99;94.00
67279;DHT22;54193;53.746;10.058;2023-10-13T00:40:28;12.03;93.97
67279;DHT22;54193;53.746;10.058;2023-10-13T00:43:16;12.03;93.89
67279;DHT22;54193;53.746;10.058;2023-10-13T00:46:05;12.08;93.93
67279;DHT22;54193;53.746;10.058;2023-10-13T00:48:50;12.09;93.91
67279;DHT22;54193;53.746;10.058;2023-10-13T00:51:39;12.09;93.99
67279;DHT22;54193;53.746;10.058;2023-10-13T00:54:34;12.11;94.07
67279;DHT22;54193;53.746;10.058;2023-10-13T00:57:21;12.18;94.15
67279;DHT22;54193;53.746;10.058;2023-10-13T01:00:13;12.20;94.12
67279;DHT22;54193;53.746;10.058;2023-10-13T01:03:09;12.22;94.14
67279;DHT22;54193;53.746;10.058;2023-10-13T01:05:59;12.25;94.22
67279;DHT22;54193;53.746;10.058;2023-10-13T01:08:46;12.28;94.19
67279;DHT22;54193;53.746;10.058;2023-10-13T01:11:41;12.30;94.16
67279;DHT22;54193;53.746;10.058;2023-10-13T01:14:28;12.33;94.16
67279;DHT22;54193;53.746;10.058;2023-10-13T01:17:14;12.36;94.18
67279;DHT22;54193;53.746;10.058;2023-10-13T01:20:01;12.37;94.23
67279;DHT22;54193;53.746;10.058;2023-10-13T01:22:48;12.40;94.28
67279;DHT22;54193;53.746;10.058;2023-10-13T01:25:41;12.44;94.34
67279;DHT22;54193;53.746;10.058;2023-10-13T01:28:26;12.47;94.30
67279;DHT22;54193;53.746;10.058;2023-10-13T01:31:12;12.46;94.32
67279;DHT22;54193;53.746;10.058;2023-10-13T01:34:02;12.49;94.40
67279;DHT22;54193;53.746;10.058;2023-10-13T01:36:51;12.53;94.45
67279;DHT22;54193;53.746;10.058;2023-10-13T01:39:38;12.54;94.60
67279;DHT22;54193;53.746;10.058;2023-10-13T01:42:24;12.54;94.63
67279;DHT22;54193;53.746;10.058;2023-10-13T01:45:10;12.58;94.57
67279;DHT22;54193;53.746;10.058;2023-10-13T01:47:56;12.61;94.54
67279;DHT22;54193;53.746;10.058;2023-10-13T01:50:42;12.63;94.63
67279;DHT22;54193;53.746;10.058;2023-10-13T01:53:27;12.68;94.64
67279;DHT22;54193;53.746;10.058;2023-10-13T01:56:14;12.68;94.66
67279;DHT22;54193;53.746;10.058;2023-10-13T01:59:00;12.71;94.65
67279;DHT22;54193;53.746;10.058;2023-10-13T02:01:45;12.76;94.70
67279;DHT22;54193;53.746;10.058;2023-10-13T02:04:31;12.77;94.78
67279;DHT22;54193;53.746;10.058;2023-10-13T02:07:18;12.80;94.71
67279;DHT22;54193;53.746;10.058;2023-10-13T02:10:06;12.77;94.57
67279;DHT22;54193;53.746;10.058;2023-10-13T02:12:53;12.56;95.37
67279;DHT22;54193;53.746;10.058;2023-10-13T02:15:41;12.56;95.57
67279;DHT22;54193;53.746;10.058;2023-10-13T02:18:29;12.56;95.75
67279;DHT22;54193;53.746;10.058;2023-10-13T02:21:27;12.57;95.89
67279;DHT22;54193;53.746;10.058;2023-10-13T02:24:17;12.65;95.96
67279;DHT22;54193;53.746;10.058;2023-10-13T02:27:15;12.64;95.96
67279;DHT22;54193;53.746;10.058;2023-10-13T02:30:01;12.70;95.99
67279;DHT22;54193;53.746;10.058;2023-10-13T02:32:47;12.73;96.03
67279;DHT22;54193;53.746;10.058;2023-10-13T02:35:34;12.73;96.04
67279;DHT22;54193;53.746;10.058;2023-10-13T02:38:22;12.77;96.11
67279;DHT22;54193;53.746;10.058;2023-10-13T02:41:26;12.81;96.21
67279;DHT22;54193;53.746;10.058;2023-10-13T02:44:13;12.84;96.19
67279;DHT22;54193;53.746;10.058;2023-10-13T02:47:05;12.85;96.21
67279;DHT22;54193;53.746;10.058;2023-10-13T02:49:59;12.94;96.40
67279;DHT22;54193;53.746;10.058;2023-10-13T02:52:56;12.95;96.46
67279;DHT22;54193;53.746;10.058;2023-10-13T02:55:53;12.98;96.48
67279;DHT22;54193;53.746;10.058;2023-10-13T02:58:41;13.09;96.20
67279;DHT22;54193;53.746;10.058;2023-10-13T03:01:35;13.16;96.10
67279;DHT22;54193;53.746;10.058;2023-10-13T03:04:20;13.23;95.98
67279;DHT22;54193;53.746;10.058;2023-10-13T03:07:11;13.30;95.89
67279;DHT22;54193;53.746;10.058;2023-10-13T03:10:00;13.36;95.84
67279;DHT22;54193;53.746;10.058;2023-10-13T03:12:55;13.38;95.92
67279;DHT22;54193;53.746;10.058;2023-10-13T03:15:41;13.42;95.79
67279;DHT22;54193;53.746;10.058;2023-10-13T03:18:26;13.44;95.78
67279;DHT22;54193;53.746;10.058;2023-10-13T03:21:17;13.47;95.80
67279;DHT22;54193;53.746;10.058;2023-10-13T03:24:13;13.44;95.91
67279;DHT22;54193;53.746;10.058;2023-10-13T03:27:00;13.49;95.70
67279;DHT22;54193;53.746;10.058;2023-10-13T03:29:54;13.53;95.80
67279;DHT22;54193;53.746;10.058;2023-10-13T03:32:40;13.57;95.91
67279;DHT22;54193;53.746;10.058;2023-10-13T03:35:47;13.60;95.86
67279;DHT22;54193;53.746;10.058;2023-10-13T03:38:39;13.60;95.95
67279;DHT22;54193;53.746;10.058;2023-10-13T03:41:25;13.63;96.01
67279;DHT22;54193;53.746;10.058;2023-10-13T03:44:15;13.66;96.10
67279;DHT22;54193;53.746;10.058;2023-10-13T03:47:03;13.70;96.12
67279;DHT22;54193;53.746;10.058;2023-10-13T03:50:04;13.69;96.11
67279;DHT22;54193;53.746;10.058;2023-10-13T03:53:00;13.69;96.02
67279;DHT22;54193;53.746;10.058;2023-10-13T03:55:46;13.74;96.14
67279;DHT22;54193;53.746;10.058;2023-10-13T03:58:34;13.75;96.07
67279;DHT22;54193;53.746;10.058;2023-10-13T04:01:20;13.77;96.12
67279;DHT22;54193;53.746;10.058;2023-10-13T04:04:17;13.78;96.19
67279;DHT22;54193;53.746;10.058;2023-10-13T04:07:22;13.87;96.21
67279;DHT22;54193;53.746;10.058;2023-10-13T04:10:22;13.87;96.15
67279;DHT22;54193;53.746;10.058;2023-10-13T04:13:26;13.87;96.13
67279;DHT22;54193;53.746;10.058;2023-10-13T04:16:30;13.88;96.19
67279;DHT22;54193;53.746;10.058;2023-10-13T04:19:16;13.92;96.16
67279;DHT22;54193;53.746;10.058;2023-10-13T04:22:14;14.01;96.21
67279;DHT22;54193;53.746;10.058;2023-10-13T04:25:06;13.98;96.10
67279;DHT22;54193;53.746;10.058;2023-10-13T04:28:13;14.02;96.16
67279;DHT22;54193;53.746;10.058;2023-10-13T04:31:31;14.07;96.22
67279;DHT22;54193;53.746;10.058;2023-10-13T04:34:41;14.11;96.14
67279;DHT22;54193;53.746;10.058;2023-10-13T04:37:37;14.11;96.30
67279;DHT22;54193;53.746;10.058;2023-10-13T04:40:41;14.15;96.18
67279;DHT22;54193;53.746;10.058;2023-10-13T04:43:44;14.17;96.27
67279;DHT22;54193;53.746;10.058;2023-10-13T04:46:43;14.18;96.32
67279;DHT22;54193;53.746;10.058;2023-10-13T04:49:33;14.21;96.33
67279;DHT22;54193;53.746;10.058;2023-10-13T04:52:35;14.22;96.38
67279;DHT22;54193;53.746;10.058;2023-10-13T04:55:33;14.25;96.36
67279;DHT22;54193;53.746;10.058;2023-10-13T04:58:33;14.26;96.14
67279;DHT22;54193;53.746;10.058;2023-10-13T05:01:19;14.33;96.36
67279;DHT22;54193;53.746;10.058;2023-10-13T05:04:10;14.36;96.38
67279;DHT22;54193;53.746;10.058;2023-10-13T05:06:56;14.43;96.38
67279;DHT22;54193;53.746;10.058;2023-10-13T05:10:00;14.46;96.37
67279;DHT22;54193;53.746;10.058;2023-10-13T05:13:05;14.53;96.33
67279;DHT22;54193;53.746;10.058;2023-10-13T05:16:08;14.52;96.33
67279;DHT22;54193;53.746;10.058;2023-10-13T05:19:13;14.56;96.37
67279;DHT22;54193;53.746;10.058;2023-10-13T05:22:17;14.57;96.36
67279;DHT22;54193;53.746;10.058;2023-10-13T05:25:21;14.63;96.35
67279;DHT22;54193;53.746;10.058;2023-10-13T05:28:26;14.64;96.39
67279;DHT22;54193;53.746;10.058;2023-10-13T05:31:30;14.72;96.36
67279;DHT22;54193;53.746;10.058;2023-10-13T05:34:34;14.69;96.43
67279;DHT22;54193;53.746;10.058;2023-10-13T05:37:38;14.72;96.33
67279;DHT22;54193;53.746;10.058;2023-10-13T05:41:00;14.80;96.36
67279;DHT22;54193;53.746;10.058;2023-10-13T05:44:04;14.79;96.42
67279;DHT22;54193;53.746;10.058;2023-10-13T05:47:08;14.84;96.40
67279;DHT22;54193;53.746;10.058;2023-10-13T05:50:13;14.91;96.36
67279;DHT22;54193;53.746;10.058;2023-10-13T05:53:04;14.95;96.49
67279;DHT22;54193;53.746;10.058;2023-10-13T05:56:00;15.01;96.41
67279;DHT22;54193;53.746;10.058;2023-10-13T05:59:05;15.07;96.49
67279;DHT22;54193;53.746;10.058;2023-10-13T06:02:09;15.07;96.37
67279;DHT22;54193;53.746;10.058;2023-10-13T06:05:15;15.17;96.51
67279;DHT22;54193;53.746;10.058;2023-10-13T06:08:19;15.22;96.47
67279;DHT22;54193;53.746;10.058;2023-10-13T06:11:23;15.22;96.40
67279;DHT22;54193;53.746;10.058;2023-10-13T06:14:27;15.28;96.37
67279;DHT22;54193;53.746;10.058;2023-10-13T06:17:32;15.34;96.32
67279;DHT22;54193;53.746;10.058;2023-10-13T06:20:39;15.32;96.22
67279;DHT22;54193;53.746;10.058;2023-10-13T06:23:43;15.39;96.35
67279;DHT22;54193;53.746;10.058;2023-10-13T06:26:47;15.42;96.29
67279;DHT22;54193;53.746;10.058;2023-10-13T06:29:51;15.46;96.22
67279;DHT22;54193;53.746;10.058;2023-10-13T06:32:39;15.52;96.26
67279;DHT22;54193;53.746;10.058;2023-10-13T06:35:27;15.53;96.32
67279;DHT22;54193;53.746;10.058;2023-10-13T06:38:13;15.56;96.12
67279;DHT22;54193;53.746;10.058;2023-10-13T06:41:07;15.65;96.24
67279;DHT22;54193;53.746;10.058;2023-10-13T06:43:53;15.70;96.19
67279;DHT22;54193;53.746;10.058;2023-10-13T06:46:44;15.80;96.13
67279;DHT22;54193;53.746;10.058;2023-10-13T06:49:30;15.83;96.07
67279;DHT22;54193;53.746;10.058;2023-10-13T06:52:18;15.84;96.11
67279;DHT22;54193;53.746;10.058;2023-10-13T06:55:12;15.89;95.86
67279;DHT22;54193;53.746;10.058;2023-10-13T06:58:02;15.96;95.95
67279;DHT22;54193;53.746;10.058;2023-10-13T07:00:48;15.97;95.92
67279;DHT22;54193;53.746;10.058;2023-10-13T07:03:43;16.00;95.89
67279;DHT22;54193;53.746;10.058;2023-10-13T07:06:29;16.01;95.92
67279;DHT22;54193;53.746;10.058;2023-10-13T07:09:17;16.01;95.96
67279;DHT22;54193;53.746;10.058;2023-10-13T07:12:21;15.97;95.70
67279;DHT22;54193;53.746;10.058;2023-10-13T07:15:13;16.04;95.88
67279;DHT22;54193;53.746;10.058;2023-10-13T07:18:01;16.07;95.81
67279;DHT22;54193;53.746;10.058;2023-10-13T07:20:51;16.08;95.93
67279;DHT22;54193;53.746;10.058;2023-10-13T07:23:38;16.08;95.80
67279;DHT22;54193;53.746;10.058;2023-10-13T07:26:24;16.14;95.88
67279;DHT22;54193;53.746;10.058;2023-10-13T07:29:11;16.15;95.84
67279;DHT22;54193;53.746;10.058;2023-10-13T07:31:56;16.14;95.74
67279;DHT22;54193;53.746;10.058;2023-10-13T07:34:44;16.18;95.76
67279;DHT22;54193;53.746;10.058;2023-10-13T07:37:35;16.22;95.78
67279;DHT22;54193;53.746;10.058;2023-10-13T07:40:21;16.25;95.80
67279;DHT22;54193;53.746;10.058;2023-10-13T07:43:27;16.24;95.75
67279;DHT22;54193;53.746;10.058;2023-10-13T07:46:13;16.25;95.70
67279;DHT22;54193;53.746;10.058;2023-10-13T07:48:59;16.31;95.77
67279;DHT22;54193;53.746;10.058;2023-10-13T07:51:58;16.28;95.76
67279;DHT22;54193;53.746;10.058;2023-10-13T07:54:47;16.31;95.70
67279;DHT22;54193;53.746;10.058;2023-10-13T07:57:35;16.28;95.78
67279;DHT22;54193;53.746;10.058;2023-10-13T08:00:22;16.29;95.72
67279;DHT22;54193;53.746;10.058;2023-10-13T08:03:24;16.29;95.77
67279;DHT22;54193;53.746;10.058;2023-10-13T08:06:28;16.31;95.76
67279;DHT22;54193;53.746;10.058;2023-10-13T08:09:14;16.29;95.75
67279;DHT22;54193;53.746;10.058;2023-10-13T08:12:25;16.35;95.84
67279;DHT22;54193;53.746;10.058;2023-10-13T08:15:12;16.36;95.81
67279;DHT22;54193;53.746;10.058;2023-10-13T08:18:06;16.36;95.75
67279;DHT22;54193;53.746;10.058;2023-10-13T08:21:03;16.42;95.71
67279;DHT22;54193;53.746;10.058;2023-10-13T08:23:49;16.36;95.76
67279;DHT22;54193;53.746;10.058;2023-10-13T08:26:41;16.33;95.78
67279;DHT22;54193;53.746;10.058;2023-10-13T08:29:46;16.25;95.80
67279;DHT22;54193;53.746;10.058;2023-10-13T08:32:41;16.15;96.34
67279;DHT22;54193;53.746;10.058;2023-10-13T08:35:44;16.25;96.03
67279;DHT22;54193;53.746;10.058;2023-10-13T08:38:50;16.31;95.85
67279;DHT22;54193;53.746;10.058;2023-10-13T08:41:41;16.31;95.76
67279;DHT22;54193;53.746;10.058;2023-10-13T08:44:45;16.26;95.78
67279;DHT22;54193;53.746;10.058;2023-10-13T08:47:38;16.25;95.76
67279;DHT22;54193;53.746;10.058;2023-10-13T08:50:24;16.22;95.89
67279;DHT22;54193;53.746;10.058;2023-10-13T08:53:29;16.22;95.85
67279;DHT22;54193;53.746;10.058;2023-10-13T08:56:33;16.08;96.38
67279;DHT22;54193;53.746;10.058;2023-10-13T08:59:19;16.20;96.07
67279;DHT22;54193;53.746;10.058;2023-10-13T09:02:15;16.08;96.38
67279;DHT22;54193;53.746;10.058;2023-10-13T09:05:04;16.04;96.33
67279;DHT22;54193;53.746;10.058;2023-10-13T09:08:10;16.04;96.44
67279;DHT22;54193;53.746;10.058;2023-10-13T09:11:02;16.03;96.47
67279;DHT22;54193;53.746;10.058;2023-10-13T09:13:56;16.03;96.64
67279;DHT22;54193;53.746;10.058;2023-10-13T09:16:49;16.07;96.63
67279;DHT22;54193;53.746;10.058;2023-10-13T09:19:53;16.08;96.74
67279;DHT22;54193;53.746;10.058;2023-10-13T09:22:42;16.10;96.64
67279;DHT22;54193;53.746;10.058;2023-10-13T09:25:31;16.21;96.70
67279;DHT22;54193;53.746;10.058;2023-10-13T09:28:24;16.41;96.21
67279;DHT22;54193;53.746;10.058;2023-10-13T09:31:21;16.52;96.00
67279;DHT22;54193;53.746;10.058;2023-10-13T09:34:19;16.60;95.83
67279;DHT22;54193;53.746;10.058;2023-10-13T09:37:05;16.66;95.73
67279;DHT22;54193;53.746;10.058;2023-10-13T09:39:55;16.68;95.62
67279;DHT22;54193;53.746;10.058;2023-10-13T09:42:54;16.72;95.58
67279;DHT22;54193;53.746;10.058;2023-10-13T09:45:42;16.87;95.46
67279;DHT22;54193;53.746;10.058;2023-10-13T09:49:12;17.06;95.05
67279;DHT22;54193;53.746;10.058;2023-10-13T09:52:19;17.11;94.92
67279;DHT22;54193;53.746;10.058;2023-10-13T09:55:13;17.13;94.62
67279;DHT22;54193;53.746;10.058;2023-10-13T09:58:06;17.20;94.45
67279;DHT22;54193;53.746;10.058;2023-10-13T10:00:59;17.18;94.35
67279;DHT22;54193;53.746;10.058;2023-10-13T10:03:53;17.04;94.41
67279;DHT22;54193;53.746;10.058;2023-10-13T10:06:54;16.99;94.51
67279;DHT22;54193;53.746;10.058;2023-10-13T10:09:40;16.94;94.60
67279;DHT22;54193;53.746;10.058;2023-10-13T10:12:42;16.79;94.79
67279;DHT22;54193;53.746;10.058;2023-10-13T10:15:35;16.86;94.61
67279;DHT22;54193;53.746;10.058;2023-10-13T10:18:22;16.83;94.67
67279;DHT22;54193;53.746;10.058;2023-10-13T10:21:10;16.79;94.40
67279;DHT22;54193;53.746;10.058;2023-10-13T10:23:56;16.72;94.48
67279;DHT22;54193;53.746;10.058;2023-10-13T10:26:52;16.79;94.54
67279;DHT22;54193;53.746;10.058;2023-10-13T10:29:38;16.75;94.46
67279;DHT22;54193;53.746;10.058;2023-10-13T10:32:37;16.83;94.49
67279;DHT22;54193;53.746;10.058;2023-10-13T10:35:26;16.96;94.24
67279;DHT22;54193;53.746;10.058;2023-10-13T10:38:17;17.06;94.19
67279;DHT22;54193;53.746;10.058;2023-10-13T10:41:08;17.15;94.00
67279;DHT22;54193;53.746;10.058;2023-10-13T10:43:58;17.13;93.97
67279;DHT22;54193;53.746;10.058;2023-10-13T10:46:48;17.14;93.89
67279;DHT22;54193;53.746;10.058;2023-10-13T10:49:43;17.14;93.97
67279;DHT22;54193;53.746;10.058;2023-10-13T10:52:29;17.10;93.91
67279;DHT22;54193;53.746;10.058;2023-10-13T10:55:22;17.15;93.84
67279;DHT22;54193;53.746;10.058;2023-10-13T10:58:13;17.23;93.90
67279;DHT22;54193;53.746;10.058;2023-10-13T11:01:14;17.25;93.79
67279;DHT22;54193;53.746;10.058;2023-10-13T11:04:07;17.42;93.62
67279;DHT22;54193;53.746;10.058;2023-10-13T11:07:00;17.49;93.58
67279;DHT22;54193;53.746;10.058;2023-10-13T11:09:45;17.61;93.33
67279;DHT22;54193;53.746;10.058;2023-10-13T11:12:32;17.66;93.28
67279;DHT22;54193;53.746;10.058;2023-10-13T11:15:20;17.72;93.12
67279;DHT22;54193;53.746;10.058;2023-10-13T11:18:29;17.80;93.04
67279;DHT22;54193;53.746;10.058;2023-10-13T11:21:19;17.83;92.93
67279;DHT22;54193;53.746;10.058;2023-10-13T11:24:05;17.79;93.35
67279;DHT22;54193;53.746;10.058;2023-10-13T11:26:57;17.86;93.10
67279;DHT22;54193;53.746;10.058;2023-10-13T11:29:43;17.93;92.76
67279;DHT22;54193;53.746;10.058;2023-10-13T11:32:37;18.06;92.61
67279;DHT22;54193;53.746;10.058;2023-10-13T11:35:27;18.11;92.56
67279;DHT22;54193;53.746;10.058;2023-10-13T11:38:34;18.21;92.48
67279;DHT22;54193;53.746;10.058;2023-10-13T11:41:26;18.21;92.42
67279;DHT22;54193;53.746;10.058;2023-10-13T11:44:19;18.37;92.29
67279;DHT22;54193;53.746;10.058;2023-10-13T11:47:05;18.43;91.85
67279;DHT22;54193;53.746;10.058;2023-10-13T11:50:14;18.64;91.62
67279;DHT22;54193;53.746;10.058;2023-10-13T11:53:00;18.86;91.41
67279;DHT22;54193;53.746;10.058;2023-10-13T11:55:45;19.09;90.40
67279;DHT22;54193;53.746;10.058;2023-10-13T11:58:31;19.27;90.18
67279;DHT22;54193;53.746;10.058;2023-10-13T12:01:18;19.32;89.97
67279;DHT22;54193;53.746;10.058;2023-10-13T12:04:03;19.31;89.74
67279;DHT22;54193;53.746;10.058;2023-10-13T12:07:09;19.32;89.69
67279;DHT22;54193;53.746;10.058;2023-10-13T12:10:12;19.54;89.61
67279;DHT22;54193;53.746;10.058;2023-10-13T12:13:02;19.65;89.53
67279;DHT22;54193;53.746;10.058;2023-10-13T12:15:55;19.76;89.42
67279;DHT22;54193;53.746;10.058;2023-10-13T12:18:42;19.83;88.96
67279;DHT22;54193;53.746;10.058;2023-10-13T12:21:31;19.87;87.98
67279;DHT22;54193;53.746;10.058;2023-10-13T12:24:16;19.85;87.93
67279;DHT22;54193;53.746;10.058;2023-10-13T12:27:16;19.92;88.10
67279;DHT22;54193;53.746;10.058;2023-10-13T12:30:05;20.00;87.49
67279;DHT22;54193;53.746;10.058;2023-10-13T12:32:58;19.95;87.87
67279;DHT22;54193;53.746;10.058;2023-10-13T12:36:00;19.82;87.47
67279;DHT22;54193;53.746;10.058;2023-10-13T12:38:54;19.71;87.23
67279;DHT22;54193;53.746;10.058;2023-10-13T12:41:52;19.83;86.61
67279;DHT22;54193;53.746;10.058;2023-10-13T12:44:56;19.87;86.52
67279;DHT22;54193;53.746;10.058;2023-10-13T12:48:00;19.92;86.13
67279;DHT22;54193;53.746;10.058;2023-10-13T12:51:21;20.00;85.74
67279;DHT22;54193;53.746;10.058;2023-10-13T12:54:07;20.10;85.63
67279;DHT22;54193;53.746;10.058;2023-10-13T12:57:00;20.20;85.19
67279;DHT22;54193;53.746;10.058;2023-10-13T12:59:45;20.29;84.90
67279;DHT22;54193;53.746;10.058;2023-10-13T13:02:31;20.32;84.88
67279;DHT22;54193;53.746;10.058;2023-10-13T13:05:17;20.27;84.67
67279;DHT22;54193;53.746;10.058;2023-10-13T13:08:07;20.33;84.09
67279;DHT22;54193;53.746;10.058;2023-10-13T13:10:53;20.39;84.26
67279;DHT22;54193;53.746;10.058;2023-10-13T13:13:38;20.37;84.35
67279;DHT22;54193;53.746;10.058;2023-10-13T13:16:25;20.50;84.00
67279;DHT22;54193;53.746;10.058;2023-10-13T13:19:15;20.45;84.43
67279;DHT22;54193;53.746;10.058;2023-10-13T13:22:09;20.41;84.67
67279;DHT22;54193;53.746;10.058;2023-10-13T13:24:58;20.47;84.76
67279;DHT22;54193;53.746;10.058;2023-10-13T13:27:45;20.32;84.85
67279;DHT22;54193;53.746;10.058;2023-10-13T13:30:31;20.22;85.46
67279;DHT22;54193;53.746;10.058;2023-10-13T13:33:20;20.13;86.19
67279;DHT22;54193;53.746;10.058;2023-10-13T13:36:11;19.97;86.88
67279;DHT22;54193;53.746;10.058;2023-10-13T13:39:01;19.86;87.53
67279;DHT22;54193;53.746;10.058;2023-10-13T13:41:47;19.87;87.30
67279;DHT22;54193;53.746;10.058;2023-10-13T13:44:35;19.99;85.75
67279;DHT22;54193;53.746;10.058;2023-10-13T13:47:21;20.02;85.98
67279;DHT22;54193;53.746;10.058;2023-10-13T13:50:08;20.13;85.23
67279;DHT22;54193;53.746;10.058;2023-10-13T13:53:02;20.22;85.29
67279;DHT22;54193;53.746;10.058;2023-10-13T13:55:54;20.23;85.38
67279;DHT22;54193;53.746;10.058;2023-10-13T13:58:40;20.20;85.35
67279;DHT22;54193;53.746;10.058;2023-10-13T14:01:25;20.13;85.89
67279;DHT22;54193;53.746;10.058;2023-10-13T14:04:11;20.14;85.99
67279;DHT22;54193;53.746;10.058;2023-10-13T14:06:59;19.95;86.95
67279;DHT22;54193;53.746;10.058;2023-10-13T14:09:46;19.83;87.87
67279;DHT22;54193;53.746;10.058;2023-10-13T14:12:38;19.75;87.44
67279;DHT22;54193;53.746;10.058;2023-10-13T14:15:29;19.74;87.63
67279;DHT22;54193;53.746;10.058;2023-10-13T14:18:15;19.81;87.43
67279;DHT22;54193;53.746;10.058;2023-10-13T14:21:00;19.76;87.06
67279;DHT22;54193;53.746;10.058;2023-10-13T14:23:51;19.64;87.77
67279;DHT22;54193;53.746;10.058;2023-10-13T14:26:39;19.57;88.02
67279;DHT22;54193;53.746;10.058;2023-10-13T14:29:26;19.48;87.20
67279;DHT22;54193;53.746;10.058;2023-10-13T14:32:13;19.51;85.74
67279;DHT22;54193;53.746;10.058;2023-10-13T14:35:00;19.43;86.10
67279;DHT22;54193;53.746;10.058;2023-10-13T14:37:56;19.41;86.63
67279;DHT22;54193;53.746;10.058;2023-10-13T14:40:42;19.47;86.36
67279;DHT22;54193;53.746;10.058;2023-10-13T14:43:27;19.48;85.83
67279;DHT22;54193;53.746;10.058;2023-10-13T14:46:14;19.67;85.27
67279;DHT22;54193;53.746;10.058;2023-10-13T14:49:00;19.68;85.33
67279;DHT22;54193;53.746;10.058;2023-10-13T14:51:47;19.55;85.09
67279;DHT22;54193;53.746;10.058;2023-10-13T14:54:35;19.62;84.31
67279;DHT22;54193;53.746;10.058;2023-10-13T14:57:23;19.74;84.09
67279;DHT22;54193;53.746;10.058;2023-10-13T15:00:13;19.79;83.91
67279;DHT22;54193;53.746;10.058;2023-10-13T15:03:00;19.82;84.02
67279;DHT22;54193;53.746;10.058;2023-10-13T15:05:46;19.79;84.48
67279;DHT22;54193;53.746;10.058;2023-10-13T15:08:33;19.79;84.26
67279;DHT22;54193;53.746;10.058;2023-10-13T15:11:19;19.74;84.29
67279;DHT22;54193;53.746;10.058;2023-10-13T15:14:05;19.75;84.62
67279;DHT22;54193;53.746;10.058;2023-10-13T15:16:53;19.75;85.00
67279;DHT22;54193;53.746;10.058;2023-10-13T15:19:40;19.69;85.05
67279;DHT22;54193;53.746;10.058;2023-10-13T15:22:28;19.67;85.40
67279;DHT22;54193;53.746;10.058;2023-10-13T15:25:14;19.67;85.24
67279;DHT22;54193;53.746;10.058;2023-10-13T15:28:06;19.72;84.52
67279;DHT22;54193;53.746;10.058;2023-10-13T15:30:55;19.92;83.57
67279;DHT22;54193;53.746;10.058;2023-10-13T15:33:55;20.00;83.08
67279;DHT22;54193;53.746;10.058;2023-10-13T15:36:42;20.19;81.80
67279;DHT22;54193;53.746;10.058;2023-10-13T15:39:29;20.17;82.21
67279;DHT22;54193;53.746;10.058;2023-10-13T15:42:17;20.10;82.13
67279;DHT22;54193;53.746;10.058;2023-10-13T15:45:04;20.20;81.71
67279;DHT22;54193;53.746;10.058;2023-10-13T15:48:02;20.26;80.68
67279;DHT22;54193;53.746;10.058;2023-10-13T15:50:49;20.39;80.55
67279;DHT22;54193;53.746;10.058;2023-10-13T15:53:35;20.36;80.08
67279;DHT22;54193;53.746;10.058;2023-10-13T15:56:21;20.39;80.16
67279;DHT22;54193;53.746;10.058;2023-10-13T15:59:07;20.43;79.85
67279;DHT22;54193;53.746;10.058;2023-10-13T16:01:53;20.36;79.99
67279;DHT22;54193;53.746;10.058;2023-10-13T16:04:42;20.32;80.18
67279;DHT22;54193;53.746;10.058;2023-10-13T16:07:29;20.20;80.50
67279;DHT22;54193;53.746;10.058;2023-10-13T16:10:15;20.13;81.20
67279;DHT22;54193;53.746;10.058;2023-10-13T16:13:02;20.17;80.88
67279;DHT22;54193;53.746;10.058;2023-10-13T16:15:50;20.08;81.24
67279;DHT22;54193;53.746;10.058;2023-10-13T16:18:37;19.92;81.90
67279;DHT22;54193;53.746;10.058;2023-10-13T16:21:23;19.90;81.45
67279;DHT22;54193;53.746;10.058;2023-10-13T16:24:09;19.96;81.02
67279;DHT22;54193;53.746;10.058;2023-10-13T16:26:56;20.09;80.08
67279;DHT22;54193;53.746;10.058;2023-10-13T16:29:41;20.13;80.23
67279;DHT22;54193;53.746;10.058;2023-10-13T16:32:31;20.09;80.18
67279;DHT22;54193;53.746;10.058;2023-10-13T16:35:18;20.19;79.73
67279;DHT22;54193;53.746;10.058;2023-10-13T16:38:03;20.22;79.70
67279;DHT22;54193;53.746;10.058;2023-10-13T16:40:52;20.29;79.44
67279;DHT22;54193;53.746;10.058;2023-10-13T16:43:39;20.24;79.72
67279;DHT22;54193;53.746;10.058;2023-10-13T16:46:25;20.19;80.26
67279;DHT22;54193;53.746;10.058;2023-10-13T16:49:11;20.08;81.23
67279;DHT22;54193;53.746;10.058;2023-10-13T16:51:57;19.93;81.86
67279;DHT22;54193;53.746;10.058;2023-10-13T16:54:44;19.89;82.14
67279;DHT22;54193;53.746;10.058;2023-10-13T16:57:29;19.75;83.27
67279;DHT22;54193;53.746;10.058;2023-10-13T17:00:21;19.72;83.46
67279;DHT22;54193;53.746;10.058;2023-10-13T17:03:13;19.55;84.61
67279;DHT22;54193;53.746;10.058;2023-10-13T17:05:58;19.37;85.39
67279;DHT22;54193;53.746;10.058;2023-10-13T17:08:46;19.13;86.86
67279;DHT22;54193;53.746;10.058;2023-10-13T17:11:33;18.95;87.56
67279;DHT22;54193;53.746;10.058;2023-10-13T17:14:18;18.79;88.76
67279;DHT22;54193;53.746;10.058;2023-10-13T17:17:05;18.68;89.35
67279;DHT22;54193;53.746;10.058;2023-10-13T17:19:52;18.54;89.96
67279;DHT22;54193;53.746;10.058;2023-10-13T17:22:39;18.45;90.61
67279;DHT22;54193;53.746;10.058;2023-10-13T17:25:27;18.44;90.72
67279;DHT22;54193;53.746;10.058;2023-10-13T17:28:12;18.40;91.01
67279;DHT22;54193;53.746;10.058;2023-10-13T17:30:58;18.30;91.24
67279;DHT22;54193;53.746;10.058;2023-10-13T17:33:45;18.27;91.73
67279;DHT22;54193;53.746;10.058;2023-10-13T17:36:31;18.27;91.56
67279;DHT22;54193;53.746;10.058;2023-10-13T17:39:17;18.21;91.60
67279;DHT22;54193;53.746;10.058;2023-10-13T17:42:05;18.16;91.97
67279;DHT22;54193;53.746;10.058;2023-10-13T17:44:51;18.11;92.11
67279;DHT22;54193;53.746;10.058;2023-10-13T17:47:38;18.07;92.11